createdAt,value
2023-03-16T00:00:53.983Z,9.20
2023-03-16T00:03:21.953Z,8.91
2023-03-16T00:05:51.553Z,8.88
2023-03-16T00:08:19.617Z,8.89
2023-03-16T00:10:47.992Z,8.78
2023-03-16T00:13:17.170Z,8.26
2023-03-16T00:15:55.378Z,8.13
2023-03-16T00:18:27.220Z,8.80
2023-03-16T00:20:59.511Z,8.29
2023-03-16T00:23:27.371Z,8.37
2023-03-16T00:25:59.699Z,8.54
2023-03-16T00:28:28.361Z,8.58
2023-03-16T00:30:59.181Z,8.37
2023-03-16T00:33:27.367Z,8.26
2023-03-16T00:36:02.382Z,8.14
2023-03-16T00:38:34.975Z,8.17
2023-03-16T00:41:04.177Z,8.72
2023-03-16T00:43:41.029Z,8.04
2023-03-16T00:46:13.437Z,8.83
2023-03-16T00:48:43.482Z,8.67
2023-03-16T00:51:16.292Z,8.62
2023-03-16T00:53:45.187Z,8.17
2023-03-16T00:56:14.065Z,8.06
2023-03-16T00:58:43.522Z,8.41
2023-03-16T01:01:15.219Z,8.20
2023-03-16T01:03:42.951Z,7.96
2023-03-16T01:06:17.120Z,6.98
2023-03-16T01:08:45.378Z,7.44
2023-03-16T01:11:17.432Z,6.62
2023-03-16T01:13:47.181Z,6.59
2023-03-16T01:16:16.146Z,7.59
2023-03-16T01:18:43.596Z,7.99
2023-03-16T01:21:15.508Z,7.62
2023-03-16T01:23:44.243Z,7.70
2023-03-16T01:26:12.836Z,8.19
2023-03-16T01:28:40.256Z,8.67
2023-03-16T01:31:09.964Z,8.40
2023-03-16T01:33:38.490Z,8.70
2023-03-16T01:36:10.448Z,7.49
2023-03-16T01:38:38.445Z,8.61
2023-03-16T01:41:06.182Z,8.90
2023-03-16T01:43:35.103Z,9.05
2023-03-16T01:46:05.702Z,7.86
2023-03-16T01:48:37.617Z,8.62
2023-03-16T01:51:08.058Z,8.37
2023-03-16T01:53:36.069Z,8.95
2023-03-16T01:56:08.392Z,8.62
2023-03-16T01:58:37.486Z,8.70
2023-03-16T02:01:05.546Z,8.56
2023-03-16T02:03:36.477Z,7.90
2023-03-16T02:06:11.789Z,8.24
2023-03-16T02:08:42.874Z,8.03
2023-03-16T02:11:10.450Z,8.75
2023-03-16T02:13:38.677Z,8.80
2023-03-16T02:16:07.603Z,8.69
2023-03-16T02:18:35.354Z,8.93
2023-03-16T02:21:35.246Z,8.49
2023-03-16T02:24:04.600Z,8.65
2023-03-16T02:27:08.305Z,9.17
2023-03-16T02:30:02.357Z,8.75
2023-03-16T02:32:32.619Z,8.19
2023-03-16T02:35:02.466Z,8.04
2023-03-16T02:37:30.026Z,8.54
2023-03-16T02:39:57.450Z,8.65
2023-03-16T02:42:26.533Z,8.52
2023-03-16T02:44:58.412Z,8.59
2023-03-16T02:47:43.795Z,8.90
2023-03-16T02:50:13.072Z,9.18
2023-03-16T02:52:41.929Z,9.33
2023-03-16T02:55:09.747Z,9.43
2023-03-16T02:57:37.182Z,9.35
2023-03-16T03:00:11.685Z,9.31
2023-03-16T03:02:39.303Z,9.43
2023-03-16T03:05:07.209Z,9.39
2023-03-16T03:07:34.769Z,9.39
2023-03-16T03:10:03.019Z,9.17
2023-03-16T03:12:31.147Z,8.71
2023-03-16T03:14:59.050Z,9.16
2023-03-16T03:17:30.213Z,9.26
2023-03-16T03:19:59.789Z,9.31
2023-03-16T03:22:27.327Z,9.03
2023-03-16T03:24:54.788Z,8.52
2023-03-16T03:27:22.868Z,8.89
2023-03-16T03:29:52.412Z,8.86
2023-03-16T03:32:22.452Z,8.62
2023-03-16T03:34:50.116Z,9.10
2023-03-16T03:37:17.557Z,8.93
2023-03-16T03:39:45.671Z,8.95
2023-03-16T03:42:13.854Z,9.02
2023-03-16T03:44:41.379Z,9.21
2023-03-16T03:47:09.016Z,9.02
2023-03-16T03:49:36.751Z,9.02
2023-03-16T03:52:05.100Z,8.77
2023-03-16T03:54:32.634Z,8.24
2023-03-16T03:57:00.697Z,8.56
2023-03-16T03:59:28.081Z,8.77
2023-03-16T04:01:57.370Z,8.65
2023-03-16T04:04:25.652Z,8.57
2023-03-16T04:06:53.213Z,8.71
2023-03-16T04:09:20.853Z,8.63
2023-03-16T04:11:48.743Z,8.74
2023-03-16T04:14:16.152Z,8.68
2023-03-16T04:16:44.479Z,8.74
2023-03-16T04:19:12.845Z,7.95
2023-03-16T04:21:40.259Z,8.40
2023-03-16T04:24:07.877Z,7.99
2023-03-16T04:26:36.500Z,8.00
2023-03-16T04:29:04.223Z,7.72
2023-03-16T04:31:32.123Z,8.23
2023-03-16T04:34:00.007Z,7.91
2023-03-16T04:36:27.476Z,8.35
2023-03-16T04:38:55.863Z,8.09
2023-03-16T04:41:24.263Z,8.43
2023-03-16T04:43:52.571Z,8.17
2023-03-16T04:46:20.156Z,8.33
2023-03-16T04:48:47.940Z,7.74
2023-03-16T04:51:15.491Z,7.68
2023-03-16T04:53:44.662Z,7.82
2023-03-16T04:56:19.701Z,7.32
2023-03-16T04:58:49.394Z,7.44
2023-03-16T05:01:18.422Z,7.50
2023-03-16T05:03:46.477Z,7.25
2023-03-16T05:06:14.544Z,7.30
2023-03-16T05:08:42.521Z,7.24
2023-03-16T05:11:10.250Z,7.44
2023-03-16T05:13:38.503Z,7.49
2023-03-16T05:16:07.229Z,7.46
2023-03-16T05:18:35.606Z,7.26
2023-03-16T05:21:03.178Z,7.26
2023-03-16T05:23:32.119Z,7.27
2023-03-16T05:26:01.047Z,7.47
2023-03-16T05:28:28.893Z,7.46
2023-03-16T05:30:57.876Z,7.73
2023-03-16T05:33:25.763Z,7.92
2023-03-16T05:35:54.278Z,8.09
2023-03-16T05:38:23.033Z,8.01
2023-03-16T05:40:53.171Z,8.09
2023-03-16T05:43:23.168Z,8.11
2023-03-16T05:45:50.851Z,8.34
2023-03-16T05:48:18.510Z,8.26
2023-03-16T05:50:47.005Z,8.66
2023-03-16T05:53:15.327Z,8.74
2023-03-16T05:55:42.957Z,8.60
2023-03-16T05:58:11.889Z,8.98
2023-03-16T06:00:39.707Z,9.00
2023-03-16T06:03:08.024Z,9.04
2023-03-16T06:05:35.893Z,8.96
2023-03-16T06:08:03.781Z,9.28
2023-03-16T06:10:31.779Z,9.10
2023-03-16T06:13:00.018Z,9.24
2023-03-16T06:15:30.411Z,9.39
2023-03-16T06:17:58.878Z,9.49
2023-03-16T06:20:26.476Z,9.54
2023-03-16T06:22:55.838Z,9.45
2023-03-16T06:25:24.169Z,9.56
2023-03-16T06:27:52.189Z,9.45
2023-03-16T06:30:20.418Z,9.94
2023-03-16T06:32:48.649Z,9.62
2023-03-16T06:35:16.177Z,9.54
2023-03-16T06:37:44.593Z,8.74
2023-03-16T06:40:15.378Z,9.67
2023-03-16T06:42:43.720Z,9.11
2023-03-16T06:45:13.814Z,9.46
2023-03-16T06:47:41.340Z,9.45
2023-03-16T06:50:11.903Z,9.20
2023-03-16T06:52:41.556Z,9.15
2023-03-16T06:55:09.769Z,9.44
2023-03-16T06:57:37.877Z,9.30
2023-03-16T07:00:07.405Z,9.73
2023-03-16T07:02:35.814Z,9.82
2023-03-16T07:05:03.911Z,9.57
2023-03-16T07:07:31.651Z,9.67
2023-03-16T07:09:59.331Z,9.57
2023-03-16T07:12:26.742Z,9.77
2023-03-16T07:14:55.324Z,9.09
2023-03-16T07:17:23.251Z,8.86
2023-03-16T07:19:50.802Z,9.47
2023-03-16T07:22:19.410Z,9.23
2023-03-16T07:24:46.907Z,9.70
2023-03-16T07:27:14.728Z,10.18
2023-03-16T07:29:42.998Z,10.81
2023-03-16T07:32:10.532Z,10.31
2023-03-16T07:34:38.277Z,10.05
2023-03-16T07:37:06.540Z,10.83
2023-03-16T07:39:35.548Z,10.71
2023-03-16T07:42:04.232Z,10.60
2023-03-16T07:44:32.379Z,10.58
2023-03-16T07:46:59.787Z,11.19
2023-03-16T07:49:28.396Z,12.05
2023-03-16T07:51:56.688Z,12.98
2023-03-16T07:54:25.272Z,12.86
2023-03-16T07:56:52.694Z,13.38
2023-03-16T07:59:23.386Z,13.51
2023-03-16T08:01:50.891Z,14.97
2023-03-16T08:04:19.104Z,15.78
2023-03-16T08:06:47.894Z,15.20
2023-03-16T08:09:15.467Z,15.21
2023-03-16T08:11:44.399Z,15.27
2023-03-16T08:14:11.842Z,15.41
2023-03-16T08:16:40.482Z,15.30
2023-03-16T08:19:08.662Z,15.98
2023-03-16T08:21:45.788Z,15.14
2023-03-16T08:24:24.397Z,15.27
2023-03-16T08:26:51.803Z,14.92
2023-03-16T08:29:19.605Z,14.75
2023-03-16T08:31:48.192Z,14.48
2023-03-16T08:34:16.118Z,13.98
2023-03-16T08:36:44.209Z,13.40
2023-03-16T08:39:12.230Z,12.96
2023-03-16T08:41:40.950Z,12.40
2023-03-16T08:44:10.752Z,12.76
2023-03-16T08:46:39.286Z,13.11
2023-03-16T08:49:06.993Z,13.10
2023-03-16T08:51:34.613Z,13.20
2023-03-16T08:54:02.296Z,13.00
2023-03-16T08:56:30.508Z,13.30
2023-03-16T08:58:58.515Z,13.13
2023-03-16T09:01:26.815Z,13.15
2023-03-16T09:03:54.991Z,13.32
2023-03-16T09:06:22.619Z,13.31
2023-03-16T09:08:50.314Z,14.17
2023-03-16T09:11:19.017Z,14.06
2023-03-16T09:13:47.284Z,14.65
2023-03-16T09:16:16.260Z,14.17
2023-03-16T09:18:43.981Z,14.19
2023-03-16T09:21:13.869Z,14.64
2023-03-16T09:23:42.860Z,14.79
2023-03-16T09:26:12.531Z,15.13
2023-03-16T09:28:42.250Z,14.71
2023-03-16T09:31:16.801Z,15.31
2023-03-16T09:33:44.461Z,15.94
2023-03-16T09:36:13.470Z,15.30
2023-03-16T09:38:42.380Z,15.21
2023-03-16T09:41:22.468Z,15.49
2023-03-16T09:44:09.193Z,15.30
2023-03-16T09:46:42.353Z,15.67
2023-03-16T09:49:11.954Z,16.13
2023-03-16T09:51:51.319Z,16.12
2023-03-16T09:54:24.948Z,15.80
2023-03-16T09:56:52.873Z,15.21
2023-03-16T09:59:22.532Z,16.10
2023-03-16T10:01:58.322Z,15.99
2023-03-16T10:04:47.242Z,15.43
2023-03-16T10:07:30.152Z,16.21
2023-03-16T10:10:00.456Z,16.40
2023-03-16T10:12:35.269Z,15.92
2023-03-16T10:15:06.770Z,15.68
2023-03-16T10:17:44.804Z,16.54
2023-03-16T10:20:20.701Z,16.56
2023-03-16T10:22:50.834Z,15.28
2023-03-16T10:25:35.808Z,15.52
2023-03-16T10:28:03.183Z,14.15
2023-03-16T10:30:38.592Z,14.16
2023-03-16T10:33:25.871Z,14.32
2023-03-16T10:36:05.684Z,14.84
2023-03-16T10:38:49.388Z,14.54
2023-03-16T10:41:20.649Z,14.80
2023-03-16T10:43:52.612Z,15.55
2023-03-16T10:46:20.369Z,16.04
2023-03-16T10:48:53.209Z,15.03
2023-03-16T10:51:25.675Z,15.27
2023-03-16T10:53:54.509Z,15.70
2023-03-16T10:56:25.467Z,15.79
2023-03-16T10:58:52.883Z,15.78
2023-03-16T11:01:27.601Z,16.13
2023-03-16T11:03:57.082Z,16.12
2023-03-16T11:06:33.051Z,16.32
2023-03-16T11:09:09.706Z,15.47
2023-03-16T11:11:37.398Z,16.11
2023-03-16T11:14:12.841Z,16.43
2023-03-16T11:16:46.633Z,16.29
2023-03-16T11:19:27.269Z,15.90
2023-03-16T11:22:04.654Z,16.25
2023-03-16T11:24:54.176Z,15.44
2023-03-16T11:27:37.112Z,14.98
2023-03-16T11:30:11.786Z,15.61
2023-03-16T11:32:41.515Z,15.60
2023-03-16T11:35:18.414Z,15.76
2023-03-16T11:37:51.853Z,15.50
2023-03-16T11:40:41.184Z,15.81
2023-03-16T11:43:39.505Z,16.11
2023-03-16T11:46:20.186Z,16.54
2023-03-16T11:48:53.378Z,15.37
2023-03-16T11:52:15.490Z,15.12
2023-03-16T11:55:10.718Z,16.01
2023-03-16T11:58:09.732Z,15.75
2023-03-16T12:01:24.734Z,15.87
2023-03-16T12:03:58.460Z,15.03
2023-03-16T12:06:33.916Z,14.40
2023-03-16T12:09:06.436Z,14.02
2023-03-16T12:11:48.214Z,14.25
2023-03-16T12:14:30.300Z,15.16
2023-03-16T12:17:04.898Z,14.34
2023-03-16T12:19:50.875Z,15.22
2023-03-16T12:22:27.079Z,14.58
2023-03-16T12:24:55.245Z,14.67
2023-03-16T12:27:38.849Z,14.45
2023-03-16T12:30:15.341Z,15.25
2023-03-16T12:32:53.499Z,14.97
2023-03-16T12:35:45.733Z,14.10
2023-03-16T12:38:28.772Z,14.29
2023-03-16T12:41:17.665Z,14.13
2023-03-16T12:44:12.641Z,14.72
2023-03-16T12:47:15.460Z,14.89
2023-03-16T12:49:43.213Z,14.48
2023-03-16T12:52:12.858Z,13.89
2023-03-16T12:55:17.722Z,14.33
2023-03-16T12:57:47.217Z,14.41
2023-03-16T13:00:15.690Z,13.52
2023-03-16T13:02:47.286Z,14.24
2023-03-16T13:05:17.694Z,13.22
2023-03-16T13:08:06.857Z,13.30
2023-03-16T13:10:34.852Z,13.95
2023-03-16T13:13:15.028Z,13.31
2023-03-16T13:15:47.379Z,13.67
2023-03-16T13:18:15.057Z,13.74
2023-03-16T13:20:48.476Z,13.65
2023-03-16T13:23:19.150Z,13.50
2023-03-16T13:26:16.977Z,12.70
2023-03-16T13:28:51.018Z,13.40
2023-03-16T13:31:35.895Z,13.01
2023-03-16T13:34:04.177Z,13.06
2023-03-16T13:36:32.698Z,13.53
2023-03-16T13:39:15.541Z,13.61
2023-03-16T13:41:43.810Z,13.55
2023-03-16T13:44:14.829Z,13.78
2023-03-16T13:46:42.283Z,13.85
2023-03-16T13:49:12.445Z,13.70
2023-03-16T13:51:40.005Z,13.38
2023-03-16T13:54:23.612Z,13.17
2023-03-16T13:56:53.002Z,13.51
2023-03-16T13:59:21.609Z,13.84
2023-03-16T14:01:49.243Z,14.04
2023-03-16T14:04:20.072Z,13.73
2023-03-16T14:07:01.954Z,13.32
2023-03-16T14:09:34.498Z,13.34
2023-03-16T14:12:02.564Z,13.84
2023-03-16T14:14:32.397Z,13.84
2023-03-16T14:17:02.953Z,14.05
2023-03-16T14:19:36.097Z,14.14
2023-03-16T14:22:06.933Z,13.84
2023-03-16T14:24:37.421Z,14.21
2023-03-16T14:27:21.833Z,13.73
2023-03-16T14:30:15.433Z,13.99
2023-03-16T14:32:58.492Z,13.89
2023-03-16T14:35:31.850Z,13.66
2023-03-16T14:38:21.760Z,14.41
2023-03-16T14:40:54.885Z,14.04
2023-03-16T14:43:29.318Z,13.85
2023-03-16T14:45:57.521Z,14.18
2023-03-16T14:48:25.353Z,14.15
2023-03-16T14:50:54.864Z,14.47
2023-03-16T14:53:24.283Z,14.45
2023-03-16T14:55:52.228Z,14.13
2023-03-16T14:58:19.632Z,14.19
2023-03-16T15:00:53.157Z,14.04
2023-03-16T15:03:27.063Z,14.15
2023-03-16T15:05:54.767Z,13.93
2023-03-16T15:08:28.712Z,14.41
2023-03-16T15:10:58.909Z,14.27
2023-03-16T15:13:42.496Z,13.72
2023-03-16T15:16:11.730Z,13.98
2023-03-16T15:18:39.904Z,13.76
2023-03-16T15:21:12.965Z,13.72
2023-03-16T15:23:42.884Z,14.05
2023-03-16T15:26:16.120Z,13.30
2023-03-16T15:28:43.990Z,13.22
2023-03-16T15:31:14.209Z,13.63
2023-03-16T15:33:42.215Z,12.74
2023-03-16T15:36:20.494Z,12.98
2023-03-16T15:38:53.985Z,13.17
2023-03-16T15:41:23.461Z,13.42
2023-03-16T15:43:52.698Z,13.84
2023-03-16T15:46:20.900Z,13.65
2023-03-16T15:48:48.594Z,13.77
2023-03-16T15:51:30.705Z,13.61
2023-03-16T15:54:00.443Z,13.59
2023-03-16T15:56:51.019Z,13.42
2023-03-16T15:59:22.242Z,13.41
2023-03-16T16:01:50.624Z,13.35
2023-03-16T16:04:23.501Z,13.45
2023-03-16T16:06:54.809Z,13.59
2023-03-16T16:09:22.824Z,14.08
2023-03-16T16:11:51.432Z,13.96
2023-03-16T16:14:24.816Z,13.83
2023-03-16T16:16:54.430Z,14.19
2023-03-16T16:19:22.060Z,13.81
2023-03-16T16:21:49.540Z,13.80
2023-03-16T16:24:18.394Z,14.17
2023-03-16T16:26:54.941Z,14.03
2023-03-16T16:29:25.768Z,13.39
2023-03-16T16:31:53.449Z,13.29
2023-03-16T16:34:24.659Z,13.67
2023-03-16T16:36:56.485Z,13.78
2023-03-16T16:39:24.255Z,13.40
2023-03-16T16:41:54.677Z,13.58
2023-03-16T16:44:24.683Z,13.32
2023-03-16T16:46:52.820Z,13.21
2023-03-16T16:49:31.059Z,13.50
2023-03-16T16:51:59.617Z,13.87
2023-03-16T16:54:31.264Z,13.74
2023-03-16T16:56:59.945Z,13.65
2023-03-16T16:59:32.182Z,13.85
2023-03-16T17:02:16.420Z,13.26
2023-03-16T17:04:43.927Z,13.74
2023-03-16T17:07:12.633Z,13.88
2023-03-16T17:09:40.072Z,13.87
2023-03-16T17:12:21.177Z,13.85
2023-03-16T17:14:49.864Z,14.02
2023-03-16T17:17:18.068Z,14.02
2023-03-16T17:19:46.927Z,13.96
2023-03-16T17:22:25.953Z,13.91
2023-03-16T17:24:54.207Z,13.95
2023-03-16T17:27:26.163Z,13.87
2023-03-16T17:29:54.298Z,13.88
2023-03-16T17:32:25.744Z,13.87
2023-03-16T17:34:53.488Z,13.73
2023-03-16T17:37:22.176Z,13.71
2023-03-16T17:39:49.944Z,13.63
2023-03-16T17:42:19.509Z,13.78
2023-03-16T17:44:51.145Z,13.75
2023-03-16T17:47:27.396Z,13.71
2023-03-16T17:49:55.039Z,13.62
2023-03-16T17:52:25.734Z,13.57
2023-03-16T17:54:54.261Z,13.63
2023-03-16T17:57:28.952Z,13.59
2023-03-16T17:59:57.305Z,13.63
2023-03-16T18:02:41.989Z,13.48
2023-03-16T18:05:22.132Z,13.50
2023-03-16T18:07:50.886Z,13.57
2023-03-16T18:10:21.961Z,13.38
2023-03-16T18:12:55.626Z,13.41
2023-03-16T18:15:31.133Z,13.37
2023-03-16T18:17:58.586Z,13.42
2023-03-16T18:20:30.955Z,13.26
2023-03-16T18:23:00.049Z,13.21
2023-03-16T18:25:30.333Z,12.89
2023-03-16T18:27:58.527Z,12.75
2023-03-16T18:30:27.243Z,12.45
2023-03-16T18:32:55.638Z,12.56
2023-03-16T18:35:23.240Z,12.57
2023-03-16T18:37:50.942Z,12.50
2023-03-16T18:40:19.246Z,12.42
2023-03-16T18:42:47.557Z,12.62
2023-03-16T18:45:16.628Z,12.30
2023-03-16T18:47:50.534Z,11.71
2023-03-16T18:50:21.943Z,12.30
2023-03-16T18:52:50.463Z,12.44
2023-03-16T18:55:21.194Z,12.52
2023-03-16T18:57:56.400Z,12.65
2023-03-16T19:00:26.590Z,12.58
2023-03-16T19:02:57.000Z,12.60
2023-03-16T19:05:35.660Z,12.50
2023-03-16T19:08:05.027Z,12.55
2023-03-16T19:10:37.976Z,12.60
2023-03-16T19:13:14.580Z,12.55
2023-03-16T19:15:42.468Z,12.48
2023-03-16T19:18:10.282Z,12.55
2023-03-16T19:20:37.817Z,12.09
2023-03-16T19:23:08.921Z,11.77
2023-03-16T19:25:38.569Z,10.31
2023-03-16T19:28:10.284Z,10.81
2023-03-16T19:30:38.611Z,11.54
2023-03-16T19:33:18.317Z,11.58
2023-03-16T19:35:51.919Z,12.06
2023-03-16T19:38:22.270Z,12.19
2023-03-16T19:40:54.347Z,11.90
2023-03-16T19:43:23.398Z,11.34
2023-03-16T19:45:51.059Z,11.31
2023-03-16T19:48:42.320Z,11.63
2023-03-16T19:51:14.784Z,12.35
2023-03-16T19:53:42.863Z,12.46
2023-03-16T19:56:20.948Z,12.67
2023-03-16T19:58:52.365Z,12.59
2023-03-16T20:01:23.443Z,12.63
2023-03-16T20:03:52.900Z,12.97
2023-03-16T20:06:22.818Z,12.89
2023-03-16T20:08:51.354Z,12.91
2023-03-16T20:11:28.619Z,13.13
2023-03-16T20:13:56.758Z,13.11
2023-03-16T20:16:36.214Z,13.19
2023-03-16T20:19:12.288Z,13.25
2023-03-16T20:21:40.657Z,13.21
2023-03-16T20:24:16.287Z,13.35
2023-03-16T20:26:45.685Z,13.14
2023-03-16T20:29:28.717Z,13.25
2023-03-16T20:31:56.910Z,12.97
2023-03-16T20:34:27.086Z,13.03
2023-03-16T20:36:55.116Z,13.05
2023-03-16T20:39:22.820Z,13.05
2023-03-16T20:41:50.930Z,12.91
2023-03-16T20:44:20.147Z,12.78
2023-03-16T20:46:48.056Z,12.87
2023-03-16T20:49:25.433Z,12.86
2023-03-16T20:51:53.283Z,12.74
2023-03-16T20:54:20.943Z,12.70
2023-03-16T20:56:49.194Z,12.64
2023-03-16T20:59:20.344Z,12.54
2023-03-16T21:01:49.698Z,12.59
2023-03-16T21:04:26.178Z,12.56
2023-03-16T21:06:54.242Z,12.48
2023-03-16T21:09:22.215Z,12.52
2023-03-16T21:11:49.885Z,12.44
2023-03-16T21:14:22.003Z,12.27
2023-03-16T21:16:50.581Z,12.15
2023-03-16T21:19:21.126Z,11.95
2023-03-16T21:21:48.641Z,11.82
2023-03-16T21:24:16.548Z,12.24
2023-03-16T21:26:45.169Z,12.24
2023-03-16T21:29:17.532Z,12.38
2023-03-16T21:31:45.358Z,12.21
2023-03-16T21:34:22.460Z,12.25
2023-03-16T21:36:50.434Z,12.00
2023-03-16T21:39:20.268Z,11.60
2023-03-16T21:41:50.557Z,11.99
2023-03-16T21:44:18.693Z,11.28
2023-03-16T21:46:47.409Z,11.14
2023-03-16T21:49:15.789Z,11.73
2023-03-16T21:51:43.812Z,12.09
2023-03-16T21:54:14.671Z,12.07
2023-03-16T21:56:43.035Z,11.76
2023-03-16T21:59:11.606Z,11.77
2023-03-16T22:01:50.879Z,11.83
2023-03-16T22:04:26.759Z,11.48
2023-03-16T22:06:54.204Z,12.03
2023-03-16T22:09:29.891Z,12.09
2023-03-16T22:11:57.712Z,11.91
2023-03-16T22:14:25.219Z,11.79
2023-03-16T22:16:52.688Z,11.71
2023-03-16T22:19:21.025Z,11.47
2023-03-16T22:21:49.901Z,11.31
2023-03-16T22:24:19.703Z,11.07
2023-03-16T22:26:49.060Z,10.90
2023-03-16T22:29:29.573Z,10.63
2023-03-16T22:32:01.404Z,10.49
2023-03-16T22:34:37.441Z,10.41
2023-03-16T22:37:05.699Z,10.25
2023-03-16T22:39:36.925Z,10.16
2023-03-16T22:42:39.112Z,10.16
2023-03-16T22:45:19.057Z,10.06
2023-03-16T22:47:47.782Z,9.92
2023-03-16T22:50:16.650Z,9.89
2023-03-16T22:52:46.357Z,9.87
2023-03-16T22:55:20.462Z,9.78
2023-03-16T22:57:50.584Z,9.61
2023-03-16T23:00:21.384Z,9.48
2023-03-16T23:02:49.304Z,9.43
2023-03-16T23:05:22.705Z,9.44
2023-03-16T23:07:51.936Z,9.35
2023-03-16T23:10:22.911Z,9.36
2023-03-16T23:12:51.817Z,9.28
2023-03-16T23:15:25.255Z,9.19
2023-03-16T23:17:53.138Z,8.95
2023-03-16T23:20:26.162Z,9.08
2023-03-16T23:22:54.383Z,9.04
2023-03-16T23:25:23.557Z,9.00
2023-03-16T23:27:51.831Z,8.61
2023-03-16T23:30:24.134Z,8.36
2023-03-16T23:32:53.656Z,8.37
2023-03-16T23:35:23.870Z,8.38
2023-03-16T23:37:51.849Z,8.23
2023-03-16T23:40:20.664Z,8.24
2023-03-16T23:42:49.038Z,8.29
2023-03-16T23:45:44.554Z,8.35
2023-03-16T23:48:18.062Z,8.33
2023-03-16T23:50:47.811Z,8.46
2023-03-16T23:53:17.683Z,8.36
2023-03-16T23:55:45.731Z,8.27
2023-03-16T23:58:14.454Z,8.33
